sensor_id;sensor_type;location;lat;lon;timestamp;P1;durP1;ratioP1;P2;durP2;ratioP2
25015;SDS011;13029;46.286;7.488;2023-07-28T00:01:29;2.67;;;2.08;;
25015;SDS011;13029;46.286;7.488;2023-07-28T00:03:54;2.88;;;2.00;;
25015;SDS011;13029;46.286;7.488;2023-07-28T00:06:20;3.80;;;1.92;;
25015;SDS011;13029;46.286;7.488;2023-07-28T00:08:46;3.47;;;2.17;;
25015;SDS011;13029;46.286;7.488;2023-07-28T00:11:11;2.30;;;1.75;;
25015;SDS011;13029;46.286;7.488;2023-07-28T00:13:38;2.35;;;2.10;;
25015;SDS011;13029;46.286;7.488;2023-07-28T00:16:04;2.83;;;2.00;;
25015;SDS011;13029;46.286;7.488;2023-07-28T00:18:29;2.20;;;1.75;;
25015;SDS011;13029;46.286;7.488;2023-07-28T00:20:55;2.65;;;1.90;;
25015;SDS011;13029;46.286;7.488;2023-07-28T00:23:20;2.20;;;1.67;;
25015;SDS011;13029;46.286;7.488;2023-07-28T00:25:45;5.55;;;1.80;;
25015;SDS011;13029;46.286;7.488;2023-07-28T00:28:11;4.72;;;1.90;;
25015;SDS011;13029;46.286;7.488;2023-07-28T00:30:36;2.65;;;1.65;;
25015;SDS011;13029;46.286;7.488;2023-07-28T00:33:01;4.78;;;2.10;;
25015;SDS011;13029;46.286;7.488;2023-07-28T00:35:27;3.25;;;2.10;;
25015;SDS011;13029;46.286;7.488;2023-07-28T00:37:52;6.00;;;2.10;;
25015;SDS011;13029;46.286;7.488;2023-07-28T00:40:17;2.45;;;1.80;;
25015;SDS011;13029;46.286;7.488;2023-07-28T00:42:42;4.93;;;1.73;;
25015;SDS011;13029;46.286;7.488;2023-07-28T00:45:08;3.72;;;1.85;;
25015;SDS011;13029;46.286;7.488;2023-07-28T00:47:34;3.47;;;2.10;;
25015;SDS011;13029;46.286;7.488;2023-07-28T00:50:00;2.28;;;1.90;;
25015;SDS011;13029;46.286;7.488;2023-07-28T00:52:25;2.40;;;1.95;;
25015;SDS011;13029;46.286;7.488;2023-07-28T00:54:50;4.63;;;2.10;;
25015;SDS011;13029;46.286;7.488;2023-07-28T00:57:16;3.28;;;2.03;;
25015;SDS011;13029;46.286;7.488;2023-07-28T00:59:43;3.83;;;2.00;;
25015;SDS011;13029;46.286;7.488;2023-07-28T01:02:09;5.13;;;2.08;;
25015;SDS011;13029;46.286;7.488;2023-07-28T01:04:35;2.47;;;1.63;;
25015;SDS011;13029;46.286;7.488;2023-07-28T01:12:44;3.75;;;2.00;;
25015;SDS011;13029;46.286;7.488;2023-07-28T01:15:09;4.07;;;1.92;;
25015;SDS011;13029;46.286;7.488;2023-07-28T01:17:34;3.10;;;2.22;;
25015;SDS011;13029;46.286;7.488;2023-07-28T01:20:00;4.63;;;2.00;;
25015;SDS011;13029;46.286;7.488;2023-07-28T01:25:22;3.28;;;1.65;;
25015;SDS011;13029;46.286;7.488;2023-07-28T01:27:51;5.07;;;2.00;;
25015;SDS011;13029;46.286;7.488;2023-07-28T01:30:17;3.88;;;1.80;;
25015;SDS011;13029;46.286;7.488;2023-07-28T01:32:42;4.28;;;2.03;;
25015;SDS011;13029;46.286;7.488;2023-07-28T01:35:07;3.88;;;2.22;;
25015;SDS011;13029;46.286;7.488;2023-07-28T01:37:33;4.35;;;2.15;;
25015;SDS011;13029;46.286;7.488;2023-07-28T01:39:58;2.80;;;1.90;;
25015;SDS011;13029;46.286;7.488;2023-07-28T01:42:24;2.92;;;2.05;;
25015;SDS011;13029;46.286;7.488;2023-07-28T01:44:49;3.25;;;1.80;;
25015;SDS011;13029;46.286;7.488;2023-07-28T01:47:15;3.03;;;2.22;;
25015;SDS011;13029;46.286;7.488;2023-07-28T01:49:40;3.45;;;2.10;;
25015;SDS011;13029;46.286;7.488;2023-07-28T01:52:06;3.80;;;2.08;;
25015;SDS011;13029;46.286;7.488;2023-07-28T01:54:31;3.05;;;2.13;;
25015;SDS011;13029;46.286;7.488;2023-07-28T01:56:56;3.17;;;2.00;;
25015;SDS011;13029;46.286;7.488;2023-07-28T01:59:22;3.22;;;1.98;;
25015;SDS011;13029;46.286;7.488;2023-07-28T02:01:47;2.83;;;2.00;;
25015;SDS011;13029;46.286;7.488;2023-07-28T02:04:12;2.60;;;1.92;;
25015;SDS011;13029;46.286;7.488;2023-07-28T02:06:38;3.88;;;1.67;;
25015;SDS011;13029;46.286;7.488;2023-07-28T02:09:03;4.07;;;1.83;;
25015;SDS011;13029;46.286;7.488;2023-07-28T02:11:28;2.97;;;1.77;;
25015;SDS011;13029;46.286;7.488;2023-07-28T02:13:54;3.35;;;2.10;;
25015;SDS011;13029;46.286;7.488;2023-07-28T02:16:19;3.08;;;1.92;;
25015;SDS011;13029;46.286;7.488;2023-07-28T02:18:45;2.83;;;1.75;;
25015;SDS011;13029;46.286;7.488;2023-07-28T02:21:10;6.43;;;2.40;;
25015;SDS011;13029;46.286;7.488;2023-07-28T02:23:35;3.50;;;2.35;;
25015;SDS011;13029;46.286;7.488;2023-07-28T02:26:00;2.95;;;2.00;;
25015;SDS011;13029;46.286;7.488;2023-07-28T02:28:26;2.65;;;1.92;;
25015;SDS011;13029;46.286;7.488;2023-07-28T02:30:51;2.40;;;1.90;;
25015;SDS011;13029;46.286;7.488;2023-07-28T02:33:17;3.25;;;2.05;;
25015;SDS011;13029;46.286;7.488;2023-07-28T02:35:42;2.75;;;2.00;;
25015;SDS011;13029;46.286;7.488;2023-07-28T02:38:07;2.22;;;1.80;;
25015;SDS011;13029;46.286;7.488;2023-07-28T02:40:33;3.00;;;1.70;;
25015;SDS011;13029;46.286;7.488;2023-07-28T02:42:58;3.47;;;1.95;;
25015;SDS011;13029;46.286;7.488;2023-07-28T02:45:24;1.92;;;1.60;;
25015;SDS011;13029;46.286;7.488;2023-07-28T02:47:50;3.33;;;1.85;;
25015;SDS011;13029;46.286;7.488;2023-07-28T02:50:15;4.25;;;2.15;;
25015;SDS011;13029;46.286;7.488;2023-07-28T02:52:40;2.97;;;1.85;;
25015;SDS011;13029;46.286;7.488;2023-07-28T02:55:06;2.80;;;1.60;;
25015;SDS011;13029;46.286;7.488;2023-07-28T02:57:31;3.80;;;2.00;;
25015;SDS011;13029;46.286;7.488;2023-07-28T02:59:57;2.42;;;1.90;;
25015;SDS011;13029;46.286;7.488;2023-07-28T03:02:22;2.85;;;1.80;;
25015;SDS011;13029;46.286;7.488;2023-07-28T03:04:47;2.40;;;1.70;;
25015;SDS011;13029;46.286;7.488;2023-07-28T03:07:13;2.75;;;1.98;;
25015;SDS011;13029;46.286;7.488;2023-07-28T03:09:38;4.88;;;2.30;;
25015;SDS011;13029;46.286;7.488;2023-07-28T03:12:03;3.50;;;1.75;;
25015;SDS011;13029;46.286;7.488;2023-07-28T03:14:30;5.13;;;1.83;;
25015;SDS011;13029;46.286;7.488;2023-07-28T03:16:56;2.75;;;2.08;;
25015;SDS011;13029;46.286;7.488;2023-07-28T03:19:22;4.22;;;2.10;;
25015;SDS011;13029;46.286;7.488;2023-07-28T03:21:47;2.60;;;1.90;;
25015;SDS011;13029;46.286;7.488;2023-07-28T03:24:12;2.30;;;2.05;;
25015;SDS011;13029;46.286;7.488;2023-07-28T03:26:38;4.15;;;1.75;;
25015;SDS011;13029;46.286;7.488;2023-07-28T03:29:03;5.03;;;2.05;;
25015;SDS011;13029;46.286;7.488;2023-07-28T03:31:29;4.50;;;2.92;;
25015;SDS011;13029;46.286;7.488;2023-07-28T03:33:54;2.83;;;2.22;;
25015;SDS011;13029;46.286;7.488;2023-07-28T03:36:19;4.20;;;2.10;;
25015;SDS011;13029;46.286;7.488;2023-07-28T03:38:45;2.45;;;1.98;;
25015;SDS011;13029;46.286;7.488;2023-07-28T03:41:11;2.10;;;1.90;;
25015;SDS011;13029;46.286;7.488;2023-07-28T03:43:36;2.35;;;1.88;;
25015;SDS011;13029;46.286;7.488;2023-07-28T03:46:02;3.72;;;2.05;;
25015;SDS011;13029;46.286;7.488;2023-07-28T03:48:27;2.42;;;1.67;;
25015;SDS011;13029;46.286;7.488;2023-07-28T03:50:52;4.78;;;1.95;;
25015;SDS011;13029;46.286;7.488;2023-07-28T03:53:18;3.03;;;1.75;;
25015;SDS011;13029;46.286;7.488;2023-07-28T03:55:43;2.35;;;1.95;;
25015;SDS011;13029;46.286;7.488;2023-07-28T03:58:08;3.08;;;1.60;;
25015;SDS011;13029;46.286;7.488;2023-07-28T04:00:34;2.92;;;1.90;;
25015;SDS011;13029;46.286;7.488;2023-07-28T04:02:59;3.08;;;1.80;;
25015;SDS011;13029;46.286;7.488;2023-07-28T04:05:24;2.17;;;1.85;;
25015;SDS011;13029;46.286;7.488;2023-07-28T04:07:50;3.15;;;2.28;;
25015;SDS011;13029;46.286;7.488;2023-07-28T04:10:15;4.60;;;2.08;;
25015;SDS011;13029;46.286;7.488;2023-07-28T04:12:40;3.20;;;2.05;;
25015;SDS011;13029;46.286;7.488;2023-07-28T04:15:06;5.15;;;1.90;;
25015;SDS011;13029;46.286;7.488;2023-07-28T04:17:31;2.70;;;2.05;;
25015;SDS011;13029;46.286;7.488;2023-07-28T04:19:57;6.35;;;1.92;;
25015;SDS011;13029;46.286;7.488;2023-07-28T04:22:22;3.45;;;2.10;;
25015;SDS011;13029;46.286;7.488;2023-07-28T04:24:47;2.70;;;1.95;;
25015;SDS011;13029;46.286;7.488;2023-07-28T04:27:13;4.13;;;2.22;;
25015;SDS011;13029;46.286;7.488;2023-07-28T04:29:39;5.00;;;2.20;;
25015;SDS011;13029;46.286;7.488;2023-07-28T04:32:04;3.60;;;2.00;;
25015;SDS011;13029;46.286;7.488;2023-07-28T04:34:32;5.38;;;2.33;;
25015;SDS011;13029;46.286;7.488;2023-07-28T04:36:59;5.50;;;2.30;;
25015;SDS011;13029;46.286;7.488;2023-07-28T04:39:24;3.35;;;2.38;;
25015;SDS011;13029;46.286;7.488;2023-07-28T04:41:50;3.78;;;2.00;;
25015;SDS011;13029;46.286;7.488;2023-07-28T04:44:15;6.47;;;2.10;;
25015;SDS011;13029;46.286;7.488;2023-07-28T04:46:41;3.15;;;2.03;;
25015;SDS011;13029;46.286;7.488;2023-07-28T04:49:06;2.38;;;1.90;;
25015;SDS011;13029;46.286;7.488;2023-07-28T04:51:31;4.05;;;2.13;;
25015;SDS011;13029;46.286;7.488;2023-07-28T04:53:57;2.22;;;2.00;;
25015;SDS011;13029;46.286;7.488;2023-07-28T04:56:22;4.55;;;2.50;;
25015;SDS011;13029;46.286;7.488;2023-07-28T04:58:47;3.72;;;1.90;;
25015;SDS011;13029;46.286;7.488;2023-07-28T05:01:12;4.03;;;2.00;;
25015;SDS011;13029;46.286;7.488;2023-07-28T05:03:38;4.53;;;2.20;;
25015;SDS011;13029;46.286;7.488;2023-07-28T05:06:03;4.32;;;2.08;;
25015;SDS011;13029;46.286;7.488;2023-07-28T05:08:30;4.15;;;2.33;;
25015;SDS011;13029;46.286;7.488;2023-07-28T05:10:55;4.45;;;2.33;;
25015;SDS011;13029;46.286;7.488;2023-07-28T05:13:21;3.05;;;2.38;;
25015;SDS011;13029;46.286;7.488;2023-07-28T05:15:47;4.63;;;2.30;;
25015;SDS011;13029;46.286;7.488;2023-07-28T05:18:12;3.80;;;2.30;;
25015;SDS011;13029;46.286;7.488;2023-07-28T05:20:37;4.40;;;2.45;;
25015;SDS011;13029;46.286;7.488;2023-07-28T05:23:03;5.43;;;2.22;;
25015;SDS011;13029;46.286;7.488;2023-07-28T05:25:28;5.43;;;1.98;;
25015;SDS011;13029;46.286;7.488;2023-07-28T05:27:53;3.90;;;2.25;;
25015;SDS011;13029;46.286;7.488;2023-07-28T05:30:19;3.97;;;2.30;;
25015;SDS011;13029;46.286;7.488;2023-07-28T05:32:45;4.50;;;2.30;;
25015;SDS011;13029;46.286;7.488;2023-07-28T05:35:11;5.55;;;2.00;;
25015;SDS011;13029;46.286;7.488;2023-07-28T05:37:36;3.70;;;1.92;;
25015;SDS011;13029;46.286;7.488;2023-07-28T05:40:01;5.07;;;2.58;;
25015;SDS011;13029;46.286;7.488;2023-07-28T05:42:27;4.47;;;2.40;;
25015;SDS011;13029;46.286;7.488;2023-07-28T05:44:52;3.42;;;2.33;;
25015;SDS011;13029;46.286;7.488;2023-07-28T05:47:19;4.85;;;2.20;;
25015;SDS011;13029;46.286;7.488;2023-07-28T05:49:45;2.67;;;1.88;;
25015;SDS011;13029;46.286;7.488;2023-07-28T05:52:11;4.47;;;2.08;;
25015;SDS011;13029;46.286;7.488;2023-07-28T05:54:36;3.53;;;2.40;;
25015;SDS011;13029;46.286;7.488;2023-07-28T05:57:02;2.60;;;2.17;;
25015;SDS011;13029;46.286;7.488;2023-07-28T05:59:27;3.72;;;2.00;;
25015;SDS011;13029;46.286;7.488;2023-07-28T06:01:53;2.45;;;1.90;;
25015;SDS011;13029;46.286;7.488;2023-07-28T06:04:18;5.03;;;2.35;;
25015;SDS011;13029;46.286;7.488;2023-07-28T06:06:43;4.68;;;2.30;;
25015;SDS011;13029;46.286;7.488;2023-07-28T06:09:09;5.72;;;2.42;;
25015;SDS011;13029;46.286;7.488;2023-07-28T06:11:34;3.05;;;2.17;;
25015;SDS011;13029;46.286;7.488;2023-07-28T06:13:59;3.10;;;2.17;;
25015;SDS011;13029;46.286;7.488;2023-07-28T06:16:24;4.25;;;2.20;;
25015;SDS011;13029;46.286;7.488;2023-07-28T06:18:50;3.63;;;2.58;;
25015;SDS011;13029;46.286;7.488;2023-07-28T06:21:15;4.97;;;2.30;;
25015;SDS011;13029;46.286;7.488;2023-07-28T06:23:40;3.60;;;2.78;;
25015;SDS011;13029;46.286;7.488;2023-07-28T06:26:06;4.10;;;2.58;;
25015;SDS011;13029;46.286;7.488;2023-07-28T06:28:31;5.32;;;2.47;;
25015;SDS011;13029;46.286;7.488;2023-07-28T06:30:57;3.03;;;2.10;;
25015;SDS011;13029;46.286;7.488;2023-07-28T06:33:24;10.25;;;2.47;;
25015;SDS011;13029;46.286;7.488;2023-07-28T06:35:49;3.67;;;2.58;;
25015;SDS011;13029;46.286;7.488;2023-07-28T06:38:15;4.05;;;2.53;;
25015;SDS011;13029;46.286;7.488;2023-07-28T06:40:40;6.53;;;2.83;;
25015;SDS011;13029;46.286;7.488;2023-07-28T06:43:05;6.30;;;2.40;;
25015;SDS011;13029;46.286;7.488;2023-07-28T06:45:32;5.65;;;2.65;;
25015;SDS011;13029;46.286;7.488;2023-07-28T06:47:57;5.47;;;2.67;;
25015;SDS011;13029;46.286;7.488;2023-07-28T06:50:23;3.90;;;2.40;;
25015;SDS011;13029;46.286;7.488;2023-07-28T06:52:48;2.72;;;2.20;;
25015;SDS011;13029;46.286;7.488;2023-07-28T06:55:15;4.13;;;2.72;;
25015;SDS011;13029;46.286;7.488;2023-07-28T06:57:41;6.97;;;2.85;;
25015;SDS011;13029;46.286;7.488;2023-07-28T07:00:06;4.53;;;2.35;;
25015;SDS011;13029;46.286;7.488;2023-07-28T07:02:34;4.45;;;2.53;;
25015;SDS011;13029;46.286;7.488;2023-07-28T07:05:00;7.13;;;2.80;;
25015;SDS011;13029;46.286;7.488;2023-07-28T07:07:25;11.38;;;3.00;;
25015;SDS011;13029;46.286;7.488;2023-07-28T07:09:50;4.45;;;2.75;;
25015;SDS011;13029;46.286;7.488;2023-07-28T07:12:16;3.42;;;2.30;;
25015;SDS011;13029;46.286;7.488;2023-07-28T07:14:41;9.02;;;3.40;;
25015;SDS011;13029;46.286;7.488;2023-07-28T07:17:06;4.05;;;2.95;;
25015;SDS011;13029;46.286;7.488;2023-07-28T07:19:32;6.82;;;3.40;;
25015;SDS011;13029;46.286;7.488;2023-07-28T07:21:58;9.27;;;3.08;;
25015;SDS011;13029;46.286;7.488;2023-07-28T07:24:23;10.15;;;3.03;;
25015;SDS011;13029;46.286;7.488;2023-07-28T07:26:48;6.30;;;3.55;;
25015;SDS011;13029;46.286;7.488;2023-07-28T07:29:16;5.18;;;2.65;;
25015;SDS011;13029;46.286;7.488;2023-07-28T07:31:42;5.63;;;2.55;;
25015;SDS011;13029;46.286;7.488;2023-07-28T07:34:07;4.53;;;2.92;;
25015;SDS011;13029;46.286;7.488;2023-07-28T07:36:33;8.02;;;2.78;;
25015;SDS011;13029;46.286;7.488;2023-07-28T07:38:58;7.55;;;2.60;;
25015;SDS011;13029;46.286;7.488;2023-07-28T07:41:24;7.20;;;3.15;;
25015;SDS011;13029;46.286;7.488;2023-07-28T07:43:50;9.25;;;2.92;;
25015;SDS011;13029;46.286;7.488;2023-07-28T07:46:17;5.72;;;3.08;;
25015;SDS011;13029;46.286;7.488;2023-07-28T07:48:44;5.90;;;2.80;;
25015;SDS011;13029;46.286;7.488;2023-07-28T07:51:09;10.88;;;2.72;;
25015;SDS011;13029;46.286;7.488;2023-07-28T07:53:35;3.90;;;2.63;;
25015;SDS011;13029;46.286;7.488;2023-07-28T07:56:01;5.63;;;2.90;;
25015;SDS011;13029;46.286;7.488;2023-07-28T07:58:27;5.38;;;3.03;;
25015;SDS011;13029;46.286;7.488;2023-07-28T08:00:54;3.42;;;2.38;;
25015;SDS011;13029;46.286;7.488;2023-07-28T08:03:19;8.93;;;3.00;;
25015;SDS011;13029;46.286;7.488;2023-07-28T08:05:45;6.30;;;3.50;;
25015;SDS011;13029;46.286;7.488;2023-07-28T08:08:10;9.52;;;3.08;;
25015;SDS011;13029;46.286;7.488;2023-07-28T08:10:35;4.25;;;3.00;;
25015;SDS011;13029;46.286;7.488;2023-07-28T08:13:01;7.90;;;3.00;;
25015;SDS011;13029;46.286;7.488;2023-07-28T08:15:29;9.32;;;3.10;;
25015;SDS011;13029;46.286;7.488;2023-07-28T08:17:54;6.85;;;3.83;;
25015;SDS011;13029;46.286;7.488;2023-07-28T08:20:19;6.03;;;3.47;;
25015;SDS011;13029;46.286;7.488;2023-07-28T08:22:45;6.35;;;3.15;;
25015;SDS011;13029;46.286;7.488;2023-07-28T08:25:10;4.75;;;2.85;;
25015;SDS011;13029;46.286;7.488;2023-07-28T08:27:35;6.72;;;3.58;;
25015;SDS011;13029;46.286;7.488;2023-07-28T08:30:01;12.52;;;3.35;;
25015;SDS011;13029;46.286;7.488;2023-07-28T08:32:26;5.95;;;3.10;;
25015;SDS011;13029;46.286;7.488;2023-07-28T08:34:51;5.03;;;3.33;;
25015;SDS011;13029;46.286;7.488;2023-07-28T08:37:17;5.05;;;2.92;;
25015;SDS011;13029;46.286;7.488;2023-07-28T08:39:42;3.90;;;2.80;;
25015;SDS011;13029;46.286;7.488;2023-07-28T08:42:08;5.13;;;2.35;;
25015;SDS011;13029;46.286;7.488;2023-07-28T08:44:33;5.78;;;2.90;;
25015;SDS011;13029;46.286;7.488;2023-07-28T08:47:00;4.18;;;2.85;;
25015;SDS011;13029;46.286;7.488;2023-07-28T08:49:26;5.20;;;2.53;;
25015;SDS011;13029;46.286;7.488;2023-07-28T08:51:52;7.90;;;2.75;;
25015;SDS011;13029;46.286;7.488;2023-07-28T08:54:17;3.60;;;2.38;;
25015;SDS011;13029;46.286;7.488;2023-07-28T08:56:43;4.53;;;2.55;;
25015;SDS011;13029;46.286;7.488;2023-07-28T08:59:09;5.10;;;2.78;;
25015;SDS011;13029;46.286;7.488;2023-07-28T09:01:43;4.90;;;2.58;;
25015;SDS011;13029;46.286;7.488;2023-07-28T09:04:09;6.15;;;2.88;;
25015;SDS011;13029;46.286;7.488;2023-07-28T09:06:35;4.53;;;2.70;;
25015;SDS011;13029;46.286;7.488;2023-07-28T09:09:01;3.75;;;2.47;;
25015;SDS011;13029;46.286;7.488;2023-07-28T09:11:26;5.70;;;2.83;;
25015;SDS011;13029;46.286;7.488;2023-07-28T09:13:53;5.57;;;2.17;;
25015;SDS011;13029;46.286;7.488;2023-07-28T09:16:20;5.38;;;2.75;;
25015;SDS011;13029;46.286;7.488;2023-07-28T09:18:45;4.25;;;2.60;;
25015;SDS011;13029;46.286;7.488;2023-07-28T09:21:17;5.30;;;2.95;;
25015;SDS011;13029;46.286;7.488;2023-07-28T09:23:45;5.70;;;2.83;;
25015;SDS011;13029;46.286;7.488;2023-07-28T09:26:14;4.28;;;2.80;;
25015;SDS011;13029;46.286;7.488;2023-07-28T09:28:40;4.97;;;2.67;;
25015;SDS011;13029;46.286;7.488;2023-07-28T09:31:06;4.50;;;2.80;;
25015;SDS011;13029;46.286;7.488;2023-07-28T09:33:33;7.68;;;3.00;;
25015;SDS011;13029;46.286;7.488;2023-07-28T09:36:12;3.90;;;2.50;;
25015;SDS011;13029;46.286;7.488;2023-07-28T09:38:39;4.43;;;2.67;;
25015;SDS011;13029;46.286;7.488;2023-07-28T09:41:06;6.07;;;3.40;;
25015;SDS011;13029;46.286;7.488;2023-07-28T09:43:34;4.30;;;2.95;;
25015;SDS011;13029;46.286;7.488;2023-07-28T09:46:00;3.72;;;2.60;;
25015;SDS011;13029;46.286;7.488;2023-07-28T09:48:29;6.10;;;3.08;;
25015;SDS011;13029;46.286;7.488;2023-07-28T09:50:56;7.13;;;3.00;;
25015;SDS011;13029;46.286;7.488;2023-07-28T09:53:23;4.15;;;2.88;;
25015;SDS011;13029;46.286;7.488;2023-07-28T09:55:51;5.70;;;2.95;;
25015;SDS011;13029;46.286;7.488;2023-07-28T09:58:16;4.65;;;3.10;;
25015;SDS011;13029;46.286;7.488;2023-07-28T10:00:42;4.20;;;3.00;;
25015;SDS011;13029;46.286;7.488;2023-07-28T10:03:08;4.80;;;2.80;;
25015;SDS011;13029;46.286;7.488;2023-07-28T10:05:34;4.45;;;2.53;;
25015;SDS011;13029;46.286;7.488;2023-07-28T10:07:59;7.60;;;3.20;;
25015;SDS011;13029;46.286;7.488;2023-07-28T10:10:25;4.53;;;2.85;;
25015;SDS011;13029;46.286;7.488;2023-07-28T10:12:53;5.65;;;2.60;;
25015;SDS011;13029;46.286;7.488;2023-07-28T10:15:21;2.92;;;2.22;;
25015;SDS011;13029;46.286;7.488;2023-07-28T10:17:56;3.33;;;2.67;;
25015;SDS011;13029;46.286;7.488;2023-07-28T10:23:07;3.25;;;2.70;;
25015;SDS011;13029;46.286;7.488;2023-07-28T10:25:37;4.28;;;2.92;;
25015;SDS011;13029;46.286;7.488;2023-07-28T10:28:04;5.13;;;2.78;;
25015;SDS011;13029;46.286;7.488;2023-07-28T10:30:37;6.40;;;3.30;;
25015;SDS011;13029;46.286;7.488;2023-07-28T10:33:03;4.40;;;2.55;;
25015;SDS011;13029;46.286;7.488;2023-07-28T10:35:29;5.00;;;2.85;;
25015;SDS011;13029;46.286;7.488;2023-07-28T10:37:57;3.40;;;2.90;;
25015;SDS011;13029;46.286;7.488;2023-07-28T10:40:29;4.63;;;3.10;;
25015;SDS011;13029;46.286;7.488;2023-07-28T10:42:56;5.18;;;2.78;;
25015;SDS011;13029;46.286;7.488;2023-07-28T10:45:24;7.28;;;2.83;;
25015;SDS011;13029;46.286;7.488;2023-07-28T10:47:51;4.25;;;2.60;;
25015;SDS011;13029;46.286;7.488;2023-07-28T10:50:17;3.90;;;2.33;;
25015;SDS011;13029;46.286;7.488;2023-07-28T10:52:44;4.25;;;2.90;;
25015;SDS011;13029;46.286;7.488;2023-07-28T10:55:11;4.35;;;2.75;;
25015;SDS011;13029;46.286;7.488;2023-07-28T10:57:47;4.57;;;3.25;;
25015;SDS011;13029;46.286;7.488;2023-07-28T11:00:15;3.75;;;2.83;;
25015;SDS011;13029;46.286;7.488;2023-07-28T11:02:44;5.68;;;3.13;;
25015;SDS011;13029;46.286;7.488;2023-07-28T11:05:10;7.82;;;2.92;;
25015;SDS011;13029;46.286;7.488;2023-07-28T11:07:44;4.78;;;2.97;;
25015;SDS011;13029;46.286;7.488;2023-07-28T11:10:10;3.67;;;2.50;;
25015;SDS011;13029;46.286;7.488;2023-07-28T11:12:38;4.05;;;2.75;;
25015;SDS011;13029;46.286;7.488;2023-07-28T11:15:06;7.30;;;2.90;;
25015;SDS011;13029;46.286;7.488;2023-07-28T11:17:35;4.78;;;2.80;;
25015;SDS011;13029;46.286;7.488;2023-07-28T11:20:02;7.75;;;3.28;;
25015;SDS011;13029;46.286;7.488;2023-07-28T11:22:27;2.95;;;2.58;;
25015;SDS011;13029;46.286;7.488;2023-07-28T11:24:52;8.55;;;3.15;;
25015;SDS011;13029;46.286;7.488;2023-07-28T11:27:18;3.47;;;2.90;;
25015;SDS011;13029;46.286;7.488;2023-07-28T11:29:43;4.75;;;2.95;;
25015;SDS011;13029;46.286;7.488;2023-07-28T11:32:09;5.38;;;2.85;;
25015;SDS011;13029;46.286;7.488;2023-07-28T11:34:37;5.60;;;2.75;;
25015;SDS011;13029;46.286;7.488;2023-07-28T11:37:03;5.95;;;2.60;;
25015;SDS011;13029;46.286;7.488;2023-07-28T11:39:30;3.28;;;2.90;;
25015;SDS011;13029;46.286;7.488;2023-07-28T11:41:56;5.45;;;2.55;;
25015;SDS011;13029;46.286;7.488;2023-07-28T11:44:22;5.15;;;2.70;;
25015;SDS011;13029;46.286;7.488;2023-07-28T11:46:49;3.95;;;3.10;;
25015;SDS011;13029;46.286;7.488;2023-07-28T11:49:18;4.63;;;2.70;;
25015;SDS011;13029;46.286;7.488;2023-07-28T11:51:48;5.18;;;3.00;;
25015;SDS011;13029;46.286;7.488;2023-07-28T11:54:15;5.00;;;3.00;;
25015;SDS011;13029;46.286;7.488;2023-07-28T11:56:42;4.40;;;2.67;;
25015;SDS011;13029;46.286;7.488;2023-07-28T11:59:08;5.07;;;3.10;;
25015;SDS011;13029;46.286;7.488;2023-07-28T12:01:34;4.32;;;2.75;;
25015;SDS011;13029;46.286;7.488;2023-07-28T12:04:18;5.75;;;3.10;;
25015;SDS011;13029;46.286;7.488;2023-07-28T12:09:31;5.13;;;2.83;;
25015;SDS011;13029;46.286;7.488;2023-07-28T12:11:57;5.25;;;2.72;;
25015;SDS011;13029;46.286;7.488;2023-07-28T12:14:31;5.13;;;2.80;;
25015;SDS011;13029;46.286;7.488;2023-07-28T12:17:00;4.63;;;3.20;;
25015;SDS011;13029;46.286;7.488;2023-07-28T12:19:26;8.30;;;3.05;;
25015;SDS011;13029;46.286;7.488;2023-07-28T12:21:51;4.28;;;2.80;;
25015;SDS011;13029;46.286;7.488;2023-07-28T12:24:17;4.60;;;2.70;;
25015;SDS011;13029;46.286;7.488;2023-07-28T12:26:42;5.47;;;2.80;;
25015;SDS011;13029;46.286;7.488;2023-07-28T12:29:08;5.18;;;3.03;;
25015;SDS011;13029;46.286;7.488;2023-07-28T12:31:33;7.40;;;3.03;;
25015;SDS011;13029;46.286;7.488;2023-07-28T12:33:58;5.88;;;2.45;;
25015;SDS011;13029;46.286;7.488;2023-07-28T12:36:24;6.50;;;2.95;;
25015;SDS011;13029;46.286;7.488;2023-07-28T12:38:49;3.45;;;2.90;;
25015;SDS011;13029;46.286;7.488;2023-07-28T12:41:15;4.97;;;2.70;;
25015;SDS011;13029;46.286;7.488;2023-07-28T12:43:40;5.85;;;2.67;;
25015;SDS011;13029;46.286;7.488;2023-07-28T12:46:05;5.88;;;2.83;;
25015;SDS011;13029;46.286;7.488;2023-07-28T12:48:31;6.00;;;3.00;;
25015;SDS011;13029;46.286;7.488;2023-07-28T12:50:56;4.78;;;2.75;;
25015;SDS011;13029;46.286;7.488;2023-07-28T12:53:22;5.45;;;2.50;;
25015;SDS011;13029;46.286;7.488;2023-07-28T12:55:47;5.05;;;3.05;;
25015;SDS011;13029;46.286;7.488;2023-07-28T12:58:13;7.05;;;3.30;;
25015;SDS011;13029;46.286;7.488;2023-07-28T13:00:38;4.68;;;2.70;;
25015;SDS011;13029;46.286;7.488;2023-07-28T13:03:06;4.22;;;2.60;;
25015;SDS011;13029;46.286;7.488;2023-07-28T13:05:31;3.10;;;2.58;;
25015;SDS011;13029;46.286;7.488;2023-07-28T13:07:57;4.95;;;2.60;;
25015;SDS011;13029;46.286;7.488;2023-07-28T13:10:22;5.35;;;2.90;;
25015;SDS011;13029;46.286;7.488;2023-07-28T13:12:47;4.78;;;2.83;;
25015;SDS011;13029;46.286;7.488;2023-07-28T13:15:13;3.38;;;2.83;;
25015;SDS011;13029;46.286;7.488;2023-07-28T13:17:38;5.22;;;2.90;;
25015;SDS011;13029;46.286;7.488;2023-07-28T13:20:04;3.42;;;2.60;;
25015;SDS011;13029;46.286;7.488;2023-07-28T13:22:31;3.38;;;2.78;;
25015;SDS011;13029;46.286;7.488;2023-07-28T13:24:57;8.10;;;2.75;;
25015;SDS011;13029;46.286;7.488;2023-07-28T13:27:22;5.25;;;3.20;;
25015;SDS011;13029;46.286;7.488;2023-07-28T13:29:47;3.80;;;2.75;;
25015;SDS011;13029;46.286;7.488;2023-07-28T13:32:23;5.72;;;2.80;;
25015;SDS011;13029;46.286;7.488;2023-07-28T13:34:49;5.25;;;2.90;;
25015;SDS011;13029;46.286;7.488;2023-07-28T13:37:14;5.15;;;2.75;;
25015;SDS011;13029;46.286;7.488;2023-07-28T13:39:39;4.75;;;2.88;;
25015;SDS011;13029;46.286;7.488;2023-07-28T13:42:06;4.75;;;2.78;;
25015;SDS011;13029;46.286;7.488;2023-07-28T13:44:31;4.05;;;3.10;;
25015;SDS011;13029;46.286;7.488;2023-07-28T13:46:56;4.85;;;2.90;;
25015;SDS011;13029;46.286;7.488;2023-07-28T13:49:21;3.75;;;2.70;;
25015;SDS011;13029;46.286;7.488;2023-07-28T13:51:47;4.47;;;3.05;;
25015;SDS011;13029;46.286;7.488;2023-07-28T13:54:12;7.95;;;3.13;;
25015;SDS011;13029;46.286;7.488;2023-07-28T13:56:37;4.60;;;3.17;;
25015;SDS011;13029;46.286;7.488;2023-07-28T13:59:03;4.95;;;2.97;;
25015;SDS011;13029;46.286;7.488;2023-07-28T14:01:28;5.10;;;3.05;;
25015;SDS011;13029;46.286;7.488;2023-07-28T14:03:53;5.57;;;3.13;;
25015;SDS011;13029;46.286;7.488;2023-07-28T14:06:19;3.80;;;2.88;;
25015;SDS011;13029;46.286;7.488;2023-07-28T14:08:44;9.35;;;2.83;;
25015;SDS011;13029;46.286;7.488;2023-07-28T14:11:10;4.20;;;2.90;;
25015;SDS011;13029;46.286;7.488;2023-07-28T14:13:35;4.78;;;2.72;;
25015;SDS011;13029;46.286;7.488;2023-07-28T14:16:00;4.72;;;2.42;;
25015;SDS011;13029;46.286;7.488;2023-07-28T14:18:26;4.38;;;2.65;;
25015;SDS011;13029;46.286;7.488;2023-07-28T14:20:51;3.15;;;2.55;;
25015;SDS011;13029;46.286;7.488;2023-07-28T14:23:20;4.13;;;2.90;;
25015;SDS011;13029;46.286;7.488;2023-07-28T14:25:50;4.30;;;3.05;;
25015;SDS011;13029;46.286;7.488;2023-07-28T14:28:15;3.90;;;3.13;;
25015;SDS011;13029;46.286;7.488;2023-07-28T14:30:41;6.18;;;2.97;;
25015;SDS011;13029;46.286;7.488;2023-07-28T14:33:11;9.45;;;3.15;;
25015;SDS011;13029;46.286;7.488;2023-07-28T14:35:36;4.13;;;3.30;;
25015;SDS011;13029;46.286;7.488;2023-07-28T14:38:02;4.22;;;3.08;;
25015;SDS011;13029;46.286;7.488;2023-07-28T14:40:27;5.68;;;3.10;;
25015;SDS011;13029;46.286;7.488;2023-07-28T14:42:52;5.25;;;2.75;;
25015;SDS011;13029;46.286;7.488;2023-07-28T14:45:18;5.32;;;2.95;;
25015;SDS011;13029;46.286;7.488;2023-07-28T14:47:45;6.00;;;2.88;;
25015;SDS011;13029;46.286;7.488;2023-07-28T14:50:11;5.03;;;3.38;;
25015;SDS011;13029;46.286;7.488;2023-07-28T14:52:36;4.47;;;3.30;;
25015;SDS011;13029;46.286;7.488;2023-07-28T14:55:03;4.18;;;2.92;;